sensor_id;sensor_type;location;lat;lon;timestamp;temperature;humidity
20418;DHT22;10368;51.436;6.774;2022-10-16T11:06:30;18.10;99.90
20418;DHT22;10368;51.436;6.774;2022-10-16T11:11:40;19.50;99.90
20418;DHT22;10368;51.436;6.774;2022-10-16T11:17:39;20.20;99.90
20418;DHT22;10368;51.436;6.774;2022-10-16T11:25:21;20.80;99.90
20418;DHT22;10368;51.436;6.774;2022-10-16T11:40:38;20.70;99.90
20418;DHT22;10368;51.436;6.774;2022-10-16T11:43:16;20.60;99.90
20418;DHT22;10368;51.436;6.774;2022-10-16T11:45:51;20.10;99.90
20418;DHT22;10368;51.436;6.774;2022-10-16T11:48:26;19.70;99.90
20418;DHT22;10368;51.436;6.774;2022-10-16T11:54:37;19.90;99.90
20418;DHT22;10368;51.436;6.774;2022-10-16T11:56:59;20.50;99.90
20418;DHT22;10368;51.436;6.774;2022-10-16T11:59:47;20.60;99.90
20418;DHT22;10368;51.436;6.774;2022-10-16T12:07:56;21.10;99.90
20418;DHT22;10368;51.436;6.774;2022-10-16T12:10:28;21.00;99.90
20418;DHT22;10368;51.436;6.774;2022-10-16T12:12:55;20.70;99.90
20418;DHT22;10368;51.436;6.774;2022-10-16T12:15:32;20.50;99.90
20418;DHT22;10368;51.436;6.774;2022-10-16T12:18:25;20.50;99.90
20418;DHT22;10368;51.436;6.774;2022-10-16T12:20:57;20.90;99.90
20418;DHT22;10368;51.436;6.774;2022-10-16T12:23:38;21.00;99.90
20418;DHT22;10368;51.436;6.774;2022-10-16T12:26:06;20.40;99.90
20418;DHT22;10368;51.436;6.774;2022-10-16T12:28:33;20.50;99.90
20418;DHT22;10368;51.436;6.774;2022-10-16T12:31:02;20.50;99.90
20418;DHT22;10368;51.436;6.774;2022-10-16T12:33:33;20.20;99.90
20418;DHT22;10368;51.436;6.774;2022-10-16T12:36:07;20.30;99.90
20418;DHT22;10368;51.436;6.774;2022-10-16T12:38:47;20.20;99.90
20418;DHT22;10368;51.436;6.774;2022-10-16T12:41:34;21.00;99.90
20418;DHT22;10368;51.436;6.774;2022-10-16T12:44:02;20.90;99.90
20418;DHT22;10368;51.436;6.774;2022-10-16T12:51:55;21.50;99.90
20418;DHT22;10368;51.436;6.774;2022-10-16T12:54:30;20.70;99.90
20418;DHT22;10368;51.436;6.774;2022-10-16T12:57:24;21.40;99.90
20418;DHT22;10368;51.436;6.774;2022-10-16T13:27:54;21.70;99.60
20418;DHT22;10368;51.436;6.774;2022-10-16T13:30:25;21.70;99.90
20418;DHT22;10368;51.436;6.774;2022-10-16T13:35:34;21.90;98.70
20418;DHT22;10368;51.436;6.774;2022-10-16T13:40:31;22.10;97.40
20418;DHT22;10368;51.436;6.774;2022-10-16T13:43:01;21.50;98.60
20418;DHT22;10368;51.436;6.774;2022-10-16T13:45:28;21.20;99.50
20418;DHT22;10368;51.436;6.774;2022-10-16T13:48:04;20.50;99.90
20418;DHT22;10368;51.436;6.774;2022-10-16T13:50:32;20.30;99.90
20418;DHT22;10368;51.436;6.774;2022-10-16T13:53:13;20.30;99.90
20418;DHT22;10368;51.436;6.774;2022-10-16T13:55:40;20.20;99.90
20418;DHT22;10368;51.436;6.774;2022-10-16T13:58:13;20.20;99.90
20418;DHT22;10368;51.436;6.774;2022-10-16T14:00:42;20.10;99.90
20418;DHT22;10368;51.436;6.774;2022-10-16T14:03:20;20.10;99.90
20418;DHT22;10368;51.436;6.774;2022-10-16T14:05:59;20.10;99.90
20418;DHT22;10368;51.436;6.774;2022-10-16T14:08:28;20.00;99.90
20418;DHT22;10368;51.436;6.774;2022-10-16T14:11:01;20.40;99.90
20418;DHT22;10368;51.436;6.774;2022-10-16T14:13:37;20.30;99.90
20418;DHT22;10368;51.436;6.774;2022-10-16T14:16:10;20.10;99.90
20418;DHT22;10368;51.436;6.774;2022-10-16T14:18:45;19.90;99.90
20418;DHT22;10368;51.436;6.774;2022-10-16T14:21:14;19.80;99.90
20418;DHT22;10368;51.436;6.774;2022-10-16T14:23:42;19.60;99.90
20418;DHT22;10368;51.436;6.774;2022-10-16T14:28:37;19.50;99.90
20418;DHT22;10368;51.436;6.774;2022-10-16T14:33:49;19.40;99.90
20418;DHT22;10368;51.436;6.774;2022-10-16T14:36:16;19.40;99.90
20418;DHT22;10368;51.436;6.774;2022-10-16T14:39:14;19.60;99.90
20418;DHT22;10368;51.436;6.774;2022-10-16T14:41:46;19.40;99.90
20418;DHT22;10368;51.436;6.774;2022-10-16T14:44:14;19.40;99.90
20418;DHT22;10368;51.436;6.774;2022-10-16T14:46:44;19.30;99.90
20418;DHT22;10368;51.436;6.774;2022-10-16T14:51:39;19.40;99.90
20418;DHT22;10368;51.436;6.774;2022-10-16T14:54:16;19.40;99.90
20418;DHT22;10368;51.436;6.774;2022-10-16T14:56:55;19.40;99.90
20418;DHT22;10368;51.436;6.774;2022-10-16T14:59:56;19.20;99.90
20418;DHT22;10368;51.436;6.774;2022-10-16T15:04:48;19.20;99.90
20418;DHT22;10368;51.436;6.774;2022-10-16T15:07:15;19.00;99.90
20418;DHT22;10368;51.436;6.774;2022-10-16T15:09:42;19.00;99.90
20418;DHT22;10368;51.436;6.774;2022-10-16T15:12:16;19.00;99.90
20418;DHT22;10368;51.436;6.774;2022-10-16T15:14:43;19.00;99.90
20418;DHT22;10368;51.436;6.774;2022-10-16T15:17:10;19.00;99.90
20418;DHT22;10368;51.436;6.774;2022-10-16T15:19:38;18.90;99.90
20418;DHT22;10368;51.436;6.774;2022-10-16T15:22:05;18.80;99.90
20418;DHT22;10368;51.436;6.774;2022-10-16T15:24:32;18.90;99.90
20418;DHT22;10368;51.436;6.774;2022-10-16T15:26:59;18.80;99.90
20418;DHT22;10368;51.436;6.774;2022-10-16T15:29:25;18.80;99.90
20418;DHT22;10368;51.436;6.774;2022-10-16T15:31:52;18.80;99.90
20418;DHT22;10368;51.436;6.774;2022-10-16T15:34:19;18.60;99.90
20418;DHT22;10368;51.436;6.774;2022-10-16T15:36:46;18.50;99.90
20418;DHT22;10368;51.436;6.774;2022-10-16T15:39:14;18.50;99.90
20418;DHT22;10368;51.436;6.774;2022-10-16T15:41:45;18.50;99.90
20418;DHT22;10368;51.436;6.774;2022-10-16T15:44:19;18.40;99.90
20418;DHT22;10368;51.436;6.774;2022-10-16T15:46:47;18.40;99.90
20418;DHT22;10368;51.436;6.774;2022-10-16T15:49:14;18.30;99.90
20418;DHT22;10368;51.436;6.774;2022-10-16T15:51:42;18.20;99.90
20418;DHT22;10368;51.436;6.774;2022-10-16T15:54:09;18.20;99.90
20418;DHT22;10368;51.436;6.774;2022-10-16T15:56:36;18.10;99.90
20418;DHT22;10368;51.436;6.774;2022-10-16T15:59:04;18.20;99.90
20418;DHT22;10368;51.436;6.774;2022-10-16T16:01:35;18.10;99.90
20418;DHT22;10368;51.436;6.774;2022-10-16T16:04:03;18.20;99.90
20418;DHT22;10368;51.436;6.774;2022-10-16T16:06:42;18.20;99.90
20418;DHT22;10368;51.436;6.774;2022-10-16T16:09:13;18.20;99.90
20418;DHT22;10368;51.436;6.774;2022-10-16T16:11:41;18.10;99.90
20418;DHT22;10368;51.436;6.774;2022-10-16T16:14:13;18.10;99.90
20418;DHT22;10368;51.436;6.774;2022-10-16T16:16:40;18.10;99.90
20418;DHT22;10368;51.436;6.774;2022-10-16T16:19:08;18.10;99.90
20418;DHT22;10368;51.436;6.774;2022-10-16T16:21:38;18.00;99.90
20418;DHT22;10368;51.436;6.774;2022-10-16T16:24:05;18.00;99.90
20418;DHT22;10368;51.436;6.774;2022-10-16T16:26:35;18.00;99.90
20418;DHT22;10368;51.436;6.774;2022-10-16T16:29:04;17.90;99.90
20418;DHT22;10368;51.436;6.774;2022-10-16T16:31:32;17.80;99.90
20418;DHT22;10368;51.436;6.774;2022-10-16T16:34:00;17.70;99.90
20418;DHT22;10368;51.436;6.774;2022-10-16T16:36:27;17.70;99.90
20418;DHT22;10368;51.436;6.774;2022-10-16T16:38:54;17.70;99.90
20418;DHT22;10368;51.436;6.774;2022-10-16T16:41:26;17.60;99.90
20418;DHT22;10368;51.436;6.774;2022-10-16T16:43:54;17.60;99.90
20418;DHT22;10368;51.436;6.774;2022-10-16T16:46:21;17.60;99.90
20418;DHT22;10368;51.436;6.774;2022-10-16T16:48:49;17.50;99.90
20418;DHT22;10368;51.436;6.774;2022-10-16T16:51:21;17.50;99.90
20418;DHT22;10368;51.436;6.774;2022-10-16T16:53:51;17.40;99.90
20418;DHT22;10368;51.436;6.774;2022-10-16T16:56:20;17.40;99.90
20418;DHT22;10368;51.436;6.774;2022-10-16T16:58:51;17.40;99.90
20418;DHT22;10368;51.436;6.774;2022-10-16T17:01:19;17.30;99.90
20418;DHT22;10368;51.436;6.774;2022-10-16T17:03:49;17.30;99.90
20418;DHT22;10368;51.436;6.774;2022-10-16T17:06:18;17.20;99.90
20418;DHT22;10368;51.436;6.774;2022-10-16T17:08:47;17.20;99.90
20418;DHT22;10368;51.436;6.774;2022-10-16T17:11:16;17.10;99.90
20418;DHT22;10368;51.436;6.774;2022-10-16T17:13:43;17.10;99.90
20418;DHT22;10368;51.436;6.774;2022-10-16T17:16:11;17.10;99.90
20418;DHT22;10368;51.436;6.774;2022-10-16T17:18:37;17.10;99.90
20418;DHT22;10368;51.436;6.774;2022-10-16T17:21:07;17.10;99.90
20418;DHT22;10368;51.436;6.774;2022-10-16T17:23:35;17.10;99.90
20418;DHT22;10368;51.436;6.774;2022-10-16T17:26:07;17.10;99.90
20418;DHT22;10368;51.436;6.774;2022-10-16T17:28:34;17.10;99.90
20418;DHT22;10368;51.436;6.774;2022-10-16T17:31:15;17.10;99.90
20418;DHT22;10368;51.436;6.774;2022-10-16T17:33:42;17.00;99.90
20418;DHT22;10368;51.436;6.774;2022-10-16T17:36:10;17.00;99.90
20418;DHT22;10368;51.436;6.774;2022-10-16T17:38:37;16.90;99.90
20418;DHT22;10368;51.436;6.774;2022-10-16T17:41:18;17.00;99.90
20418;DHT22;10368;51.436;6.774;2022-10-16T17:43:46;17.00;99.90
20418;DHT22;10368;51.436;6.774;2022-10-16T17:46:14;17.00;99.90
20418;DHT22;10368;51.436;6.774;2022-10-16T17:48:43;16.90;99.90
20418;DHT22;10368;51.436;6.774;2022-10-16T17:51:12;17.00;99.90
20418;DHT22;10368;51.436;6.774;2022-10-16T17:53:40;17.00;99.90
20418;DHT22;10368;51.436;6.774;2022-10-16T17:56:10;16.90;99.90
20418;DHT22;10368;51.436;6.774;2022-10-16T18:13:58;16.90;99.90
20418;DHT22;10368;51.436;6.774;2022-10-16T18:16:27;16.80;99.90
20418;DHT22;10368;51.436;6.774;2022-10-16T18:18:56;16.80;99.90
20418;DHT22;10368;51.436;6.774;2022-10-16T18:21:25;16.70;99.90
20418;DHT22;10368;51.436;6.774;2022-10-16T18:23:57;16.60;99.90
20418;DHT22;10368;51.436;6.774;2022-10-16T18:26:24;16.60;99.90
20418;DHT22;10368;51.436;6.774;2022-10-16T18:28:53;16.60;99.90
20418;DHT22;10368;51.436;6.774;2022-10-16T18:31:21;16.60;99.90
20418;DHT22;10368;51.436;6.774;2022-10-16T18:33:49;16.50;99.90
20418;DHT22;10368;51.436;6.774;2022-10-16T18:36:19;16.60;99.90
20418;DHT22;10368;51.436;6.774;2022-10-16T18:38:47;16.50;99.90
20418;DHT22;10368;51.436;6.774;2022-10-16T18:41:14;16.60;99.90
20418;DHT22;10368;51.436;6.774;2022-10-16T18:43:41;16.60;99.90
20418;DHT22;10368;51.436;6.774;2022-10-16T18:46:16;16.60;99.90
20418;DHT22;10368;51.436;6.774;2022-10-16T18:48:44;16.60;99.90
20418;DHT22;10368;51.436;6.774;2022-10-16T18:53:49;16.70;99.90
20418;DHT22;10368;51.436;6.774;2022-10-16T18:56:18;16.70;99.90
20418;DHT22;10368;51.436;6.774;2022-10-16T18:58:46;16.70;99.90
20418;DHT22;10368;51.436;6.774;2022-10-16T19:01:22;16.70;99.90
20418;DHT22;10368;51.436;6.774;2022-10-16T19:03:58;16.70;99.90
20418;DHT22;10368;51.436;6.774;2022-10-16T19:06:26;16.70;99.90
20418;DHT22;10368;51.436;6.774;2022-10-16T19:08:55;16.60;99.90
20418;DHT22;10368;51.436;6.774;2022-10-16T19:11:23;16.70;99.90
20418;DHT22;10368;51.436;6.774;2022-10-16T19:16:25;16.40;99.90
20418;DHT22;10368;51.436;6.774;2022-10-16T19:18:55;16.20;99.90
20418;DHT22;10368;51.436;6.774;2022-10-16T19:21:23;16.10;99.90
20418;DHT22;10368;51.436;6.774;2022-10-16T19:23:58;16.20;99.90
20418;DHT22;10368;51.436;6.774;2022-10-16T19:26:28;16.20;99.90
20418;DHT22;10368;51.436;6.774;2022-10-16T19:28:57;16.20;99.90
20418;DHT22;10368;51.436;6.774;2022-10-16T19:31:28;16.20;99.90
20418;DHT22;10368;51.436;6.774;2022-10-16T19:33:57;16.20;99.90
20418;DHT22;10368;51.436;6.774;2022-10-16T19:36:26;16.30;99.90
20418;DHT22;10368;51.436;6.774;2022-10-16T19:38:56;16.30;99.90
20418;DHT22;10368;51.436;6.774;2022-10-16T19:41:24;16.30;99.90
20418;DHT22;10368;51.436;6.774;2022-10-16T19:43:51;16.20;99.90
20418;DHT22;10368;51.436;6.774;2022-10-16T19:46:21;16.20;99.90
20418;DHT22;10368;51.436;6.774;2022-10-16T19:48:53;16.10;99.90
20418;DHT22;10368;51.436;6.774;2022-10-16T19:51:20;16.20;99.90
20418;DHT22;10368;51.436;6.774;2022-10-16T19:53:51;16.20;99.90
20418;DHT22;10368;51.436;6.774;2022-10-16T19:56:21;16.20;99.90
20418;DHT22;10368;51.436;6.774;2022-10-16T19:58:50;16.20;99.90
20418;DHT22;10368;51.436;6.774;2022-10-16T20:01:17;16.10;99.90
20418;DHT22;10368;51.436;6.774;2022-10-16T20:03:46;16.20;99.90
20418;DHT22;10368;51.436;6.774;2022-10-16T20:06:14;16.20;99.90
20418;DHT22;10368;51.436;6.774;2022-10-16T20:08:42;16.20;99.90
20418;DHT22;10368;51.436;6.774;2022-10-16T20:11:14;16.20;99.90
20418;DHT22;10368;51.436;6.774;2022-10-16T20:13:41;16.20;99.90
20418;DHT22;10368;51.436;6.774;2022-10-16T20:16:09;16.20;99.90
20418;DHT22;10368;51.436;6.774;2022-10-16T20:18:37;16.10;99.90
20418;DHT22;10368;51.436;6.774;2022-10-16T20:21:16;16.10;99.90
20418;DHT22;10368;51.436;6.774;2022-10-16T20:23:43;16.10;99.90
20418;DHT22;10368;51.436;6.774;2022-10-16T20:26:13;16.10;99.90
20418;DHT22;10368;51.436;6.774;2022-10-16T20:28:41;16.10;99.90
20418;DHT22;10368;51.436;6.774;2022-10-16T20:31:12;16.10;99.90
20418;DHT22;10368;51.436;6.774;2022-10-16T20:33:41;16.10;99.90
20418;DHT22;10368;51.436;6.774;2022-10-16T20:36:13;16.10;99.90
20418;DHT22;10368;51.436;6.774;2022-10-16T20:38:41;16.20;99.90
20418;DHT22;10368;51.436;6.774;2022-10-16T20:41:09;16.20;99.90
20418;DHT22;10368;51.436;6.774;2022-10-16T20:43:40;16.20;99.90
20418;DHT22;10368;51.436;6.774;2022-10-16T20:46:11;16.20;99.90
20418;DHT22;10368;51.436;6.774;2022-10-16T20:48:42;16.20;99.90
20418;DHT22;10368;51.436;6.774;2022-10-16T20:53:58;16.20;99.90
20418;DHT22;10368;51.436;6.774;2022-10-16T20:56:27;16.20;99.90
20418;DHT22;10368;51.436;6.774;2022-10-16T20:58:56;16.20;99.90
20418;DHT22;10368;51.436;6.774;2022-10-16T21:01:25;16.20;99.90
20418;DHT22;10368;51.436;6.774;2022-10-16T21:03:54;16.10;99.90
20418;DHT22;10368;51.436;6.774;2022-10-16T21:06:22;16.10;99.90
20418;DHT22;10368;51.436;6.774;2022-10-16T21:08:50;16.10;99.90
20418;DHT22;10368;51.436;6.774;2022-10-16T21:11:19;16.10;99.90
20418;DHT22;10368;51.436;6.774;2022-10-16T21:13:46;16.00;99.90
20418;DHT22;10368;51.436;6.774;2022-10-16T21:16:14;16.00;99.90
20418;DHT22;10368;51.436;6.774;2022-10-16T21:18:41;16.10;99.90
20418;DHT22;10368;51.436;6.774;2022-10-16T21:21:21;16.00;99.90
20418;DHT22;10368;51.436;6.774;2022-10-16T21:23:49;16.00;99.90
20418;DHT22;10368;51.436;6.774;2022-10-16T21:26:18;16.00;99.90
20418;DHT22;10368;51.436;6.774;2022-10-16T21:28:48;16.00;99.90
20418;DHT22;10368;51.436;6.774;2022-10-16T21:31:18;15.90;99.90
20418;DHT22;10368;51.436;6.774;2022-10-16T21:33:46;15.90;99.90
20418;DHT22;10368;51.436;6.774;2022-10-16T21:36:19;15.90;99.90
20418;DHT22;10368;51.436;6.774;2022-10-16T21:38:46;15.90;99.90
20418;DHT22;10368;51.436;6.774;2022-10-16T21:43:45;15.90;99.90
20418;DHT22;10368;51.436;6.774;2022-10-16T21:46:16;15.90;99.90
20418;DHT22;10368;51.436;6.774;2022-10-16T21:48:43;15.90;99.90
20418;DHT22;10368;51.436;6.774;2022-10-16T21:51:11;15.90;99.90
20418;DHT22;10368;51.436;6.774;2022-10-16T21:53:38;15.90;99.90
20418;DHT22;10368;51.436;6.774;2022-10-16T21:56:14;15.90;99.90
20418;DHT22;10368;51.436;6.774;2022-10-16T21:58:42;15.90;99.90
20418;DHT22;10368;51.436;6.774;2022-10-16T22:01:12;15.90;99.90
20418;DHT22;10368;51.436;6.774;2022-10-16T22:03:39;16.00;99.90
20418;DHT22;10368;51.436;6.774;2022-10-16T22:06:08;16.00;99.90
20418;DHT22;10368;51.436;6.774;2022-10-16T22:08:36;16.00;99.90
20418;DHT22;10368;51.436;6.774;2022-10-16T22:11:10;16.00;99.90
20418;DHT22;10368;51.436;6.774;2022-10-16T22:13:37;16.10;99.90
20418;DHT22;10368;51.436;6.774;2022-10-16T22:16:04;16.10;99.90
20418;DHT22;10368;51.436;6.774;2022-10-16T22:18:32;16.10;99.90
20418;DHT22;10368;51.436;6.774;2022-10-16T22:21:01;16.10;99.90
20418;DHT22;10368;51.436;6.774;2022-10-16T22:23:28;16.10;99.90
20418;DHT22;10368;51.436;6.774;2022-10-16T22:26:06;16.20;99.90
20418;DHT22;10368;51.436;6.774;2022-10-16T22:28:33;16.20;99.90
20418;DHT22;10368;51.436;6.774;2022-10-16T22:31:02;16.20;99.90
20418;DHT22;10368;51.436;6.774;2022-10-16T22:33:29;16.20;99.90
20418;DHT22;10368;51.436;6.774;2022-10-16T22:35:58;16.20;99.90
20418;DHT22;10368;51.436;6.774;2022-10-16T22:38:25;16.20;99.90
20418;DHT22;10368;51.436;6.774;2022-10-16T22:40:53;16.10;99.90
20418;DHT22;10368;51.436;6.774;2022-10-16T22:43:20;16.20;99.90
20418;DHT22;10368;51.436;6.774;2022-10-16T22:45:47;16.10;99.90
20418;DHT22;10368;51.436;6.774;2022-10-16T22:48:14;16.10;99.90
20418;DHT22;10368;51.436;6.774;2022-10-16T22:50:41;16.10;99.90
20418;DHT22;10368;51.436;6.774;2022-10-16T22:53:07;16.10;99.90
20418;DHT22;10368;51.436;6.774;2022-10-16T22:55:34;16.10;99.90
20418;DHT22;10368;51.436;6.774;2022-10-16T22:58:01;16.10;99.90
20418;DHT22;10368;51.436;6.774;2022-10-16T23:00:28;16.10;99.90
20418;DHT22;10368;51.436;6.774;2022-10-16T23:02:55;16.10;99.90
20418;DHT22;10368;51.436;6.774;2022-10-16T23:05:22;16.10;99.90
20418;DHT22;10368;51.436;6.774;2022-10-16T23:07:48;16.10;99.90
20418;DHT22;10368;51.436;6.774;2022-10-16T23:10:16;16.00;99.90
20418;DHT22;10368;51.436;6.774;2022-10-16T23:12:43;16.10;99.90
20418;DHT22;10368;51.436;6.774;2022-10-16T23:15:11;16.00;99.90
20418;DHT22;10368;51.436;6.774;2022-10-16T23:17:39;16.00;99.90
20418;DHT22;10368;51.436;6.774;2022-10-16T23:20:06;16.10;99.90
20418;DHT22;10368;51.436;6.774;2022-10-16T23:22:35;16.00;99.90
20418;DHT22;10368;51.436;6.774;2022-10-16T23:25:02;16.00;99.90
20418;DHT22;10368;51.436;6.774;2022-10-16T23:27:30;16.00;99.90
20418;DHT22;10368;51.436;6.774;2022-10-16T23:29:57;16.00;99.90
20418;DHT22;10368;51.436;6.774;2022-10-16T23:32:24;16.00;99.90
20418;DHT22;10368;51.436;6.774;2022-10-16T23:34:51;15.90;99.90
20418;DHT22;10368;51.436;6.774;2022-10-16T23:37:18;15.90;99.90
20418;DHT22;10368;51.436;6.774;2022-10-16T23:39:50;15.90;99.90
20418;DHT22;10368;51.436;6.774;2022-10-16T23:42:17;15.90;99.90
20418;DHT22;10368;51.436;6.774;2022-10-16T23:44:44;15.90;99.90
20418;DHT22;10368;51.436;6.774;2022-10-16T23:47:11;15.90;99.90
20418;DHT22;10368;51.436;6.774;2022-10-16T23:49:38;15.90;99.90
20418;DHT22;10368;51.436;6.774;2022-10-16T23:52:05;15.90;99.90
20418;DHT22;10368;51.436;6.774;2022-10-16T23:54:32;15.90;99.90
20418;DHT22;10368;51.436;6.774;2022-10-16T23:56:59;15.90;99.90
20418;DHT22;10368;51.436;6.774;2022-10-16T23:59:26;15.90;99.90
